• Join FlightAware (Why Join?)
  • Login
  • US Flag 
12:15AM EDT


 

Airport Tracker/Info


-or-


 

Live Flight TrackerFlight Track Log ✈ FIN666 ✈ 17-Oct-2013 ✈ EKCH / CPH - EFHK / HEL

Flight Track Log - Related Links

Times and Time Zones

All times are in EDT time to prevent confusion due to time zone crossing. See the FIN666 flight status page for this flight to view local times or setup timezone preferences in your user account.

Time Position Orientation Groundspeed Altitude Reporting Facility
EDT Latitude Longitude Course Direction KTS MPH feet Rate Location/Type
07:32AM 55.8556 13.1474 49° Northeast  Level Estimated
07:33AM 55.9343 13.3125 50° Northeast  Level Estimated
07:34AM 56.0129 13.4784 50° Northeast  Level Estimated
07:35AM 56.0912 13.6449 50° Northeast  Level Estimated
07:36AM 56.1693 13.8120 50° Northeast  Level Estimated
07:37AM 56.2472 13.9799 50° Northeast  Level Estimated
07:38AM 56.3249 14.1484 50° Northeast  Level Estimated
07:39AM 56.4023 14.3176 50° Northeast  Level Estimated
07:40AM 56.4795 14.4875 51° Northeast  Level Estimated
07:41AM 56.5564 14.6581 51° Northeast  Level Estimated
07:42AM 56.6332 14.8294 51° Northeast  Level Estimated
07:43AM 56.7097 15.0014 51° Northeast  Level Estimated
07:44AM 56.7859 15.1741 51° Northeast  Level Estimated
07:45AM 56.8619 15.3475 51° Northeast  Level Estimated
07:46AM 56.9377 15.5216 51° Northeast  Level Estimated
07:47AM 57.0132 15.6964 52° Northeast  Level Estimated
07:48AM 57.0885 15.8719 52° Northeast  Level Estimated
07:49AM 57.1636 16.0482 52° Northeast  Level Estimated
07:50AM 57.2372 16.2225 52° Northeast  Level Estimated
07:51AM 57.3107 16.3974 52° Northeast  Level Estimated
07:52AM 57.3839 16.5731 52° Northeast  Level Estimated
07:53AM 57.4568 16.7495 52° Northeast  Level Estimated
07:54AM 57.5295 16.9266 53° Northeast  Level Estimated
07:55AM 57.6019 17.1045 53° Northeast  Level Estimated
07:56AM 57.6741 17.2830 53° Northeast  Level Estimated
07:57AM 57.7461 17.4622 53° Northeast  Level Estimated
07:58AM 57.8178 17.6421 53° Northeast  Level Estimated
07:59AM 57.8892 17.8228 53° Northeast  Level Estimated
08:00AM 57.9604 18.0042 53° Northeast  Level Estimated
08:01AM 58.0313 18.1863 54° Northeast  Level Estimated
08:02AM 58.1020 18.3691 54° Northeast  Level Estimated
08:03AM 58.1724 18.5526 54° Northeast  Level Estimated
08:04AM 58.2425 18.7369 54° Northeast  Level Estimated
08:05AM 58.3124 18.9219 54° Northeast  Level Estimated
08:06AM 58.3820 19.1076 54° Northeast  Level Estimated
08:07AM 58.4513 19.2941 55° Northeast  Level Estimated
08:08AM 58.5203 19.4813 55° Northeast  Level Estimated
08:09AM 58.5891 19.6692 55° Northeast  Level Estimated
08:10AM 58.6576 19.8579 55° Northeast  Level Estimated
08:11AM 58.7258 20.0473 55° Northeast  Level Estimated
08:12AM 58.7938 20.2374 55° Northeast  Level Estimated
08:13AM 58.8615 20.4283 56° Northeast  Level Estimated
08:14AM 58.9289 20.6200 56° Northeast  Level Estimated
08:15AM 58.9960 20.8123 56° Northeast  Level Estimated
08:16AM 59.0628 21.0055 56° Northeast  Level Estimated
08:17AM 59.1293 21.1994 56° Northeast  Level Estimated
08:18AM 59.1955 21.3940 56° Northeast  Level Estimated
08:19AM 59.2605 21.5865 57° Northeast  Level Estimated
08:20AM 59.3252 21.7798 57° Northeast  Level Estimated
08:21AM 59.3896 21.9738 57° Northeast  Level Estimated
08:22AM 59.4537 22.1685 57° Northeast  Level Estimated
08:23AM 59.5176 22.3640 57° Northeast  Level Estimated
08:24AM 59.5811 22.5602 57° Northeast  Level Estimated
08:25AM 59.6443 22.7572 58° Northeast  Level Estimated
08:26AM 59.7073 22.9548 58° Northeast  Level Estimated
08:27AM 59.7699 23.1533 58° Northeast  Level Estimated
08:28AM 59.8322 23.3525 58° Northeast  Level Estimated
08:29AM 59.8943 23.5524 58° Northeast  Level Estimated
08:30AM 59.9560 23.7530 58° Northeast  Level Estimated
08:31AM 60.0174 23.9545 59° Northeast  Level Estimated
08:32AM 60.0786 24.1566 59° Northeast  Level Estimated
08:33AM 60.1394 24.3595 59° Northeast  Level Estimated
08:34AM 60.1999 24.5632 59° Northeast  Level Estimated
08:35AM 60.2601 24.7676 59° Northeast  Level Estimated
08:36AM 60.3172 24.9633 59° Northeast  Level Estimated
08:37AM 60.3172 24.9633 37° Northeast  Level Estimated
08:38AM 60.3172 24.9633 37° Northeast  Level Estimated
08:39AM 60.3172 24.9633 37° Northeast  Level Estimated
08:40AM 60.3172 24.9633 37° Northeast  Level Estimated
08:41AM 60.3172 24.9633 37° Northeast  Level Estimated
08:42AM 60.3172 24.9633 37° Northeast  Level Estimated
08:43AM 60.3172 24.9633 37° Northeast  Level Estimated
08:44AM 60.3172 24.9633 37° Northeast  Level Estimated
08:45AM 60.3172 24.9633 37° Northeast  Level Estimated
08:46AM 60.3172 24.9633 37° Northeast  Level Estimated
08:47AM 60.3172 24.9633 37° Northeast  Level Estimated
08:48AM 60.3172 24.9633 37° Northeast  Level Estimated
08:49AM 60.3172 24.9633 37° Northeast  Level Estimated
08:50AM 60.3172 24.9633 37° Northeast  Level Estimated
08:51AM 60.3172 24.9633 37° Northeast  Level Estimated